Time;durP1;ratioP1;P1;durP2;ratioP2;P2;SDS_P1;SDS_P2;PMS_P1;PMS_P2;Temp;Humidity;BMP_temperature;BMP_pressure;BME280_temperature;BME280_humidity;BME280_pressure;Samples;Min_cycle;Max_cycle;Signal;HPM_P1;HPM_P2
2024/03/16 00:00:48;;;;;;;;;;;11.50;99.90;;;11.78;78.42;99866.66;4940623;29;20359;-83
2024/03/16 00:03:15;;;;;;;;;;;11.60;99.90;;;11.79;78.07;99869.06;4940652;29;20297;-83
2024/03/16 00:05:42;;;;;;;;;;;11.60;99.90;;;11.68;77.78;99867.22;4940670;29;20359;-82
2024/03/16 00:08:10;;;;;;;;;;;11.50;99.90;;;11.62;77.99;99876.19;4941275;29;20022;-82
2024/03/16 00:10:37;;;;;;;;;;;11.50;99.90;;;11.58;78.57;99865.13;4940909;29;19933;-82
2024/03/16 00:13:06;;;;;;;;;;;11.50;99.90;;;11.67;78.53;99870.94;4940882;29;20359;-82
2024/03/16 00:15:34;;;;;;;;;;;11.50;99.90;;;11.63;77.76;99877.81;4940975;29;19937;-82
2024/03/16 00:18:01;;;;;;;;;;;11.50;99.90;;;11.63;77.94;99875.13;4940562;29;19926;-83
2024/03/16 00:20:28;;;;;;;;;;;11.50;99.90;;;11.59;78.25;99872.09;4924507;29;19930;-82
2024/03/16 00:22:56;;;;;;;;;;;11.50;99.90;;;11.67;78.05;99870.16;4924663;29;19926;-83
2024/03/16 00:25:23;;;;;;;;;;;11.50;99.90;;;11.68;78.01;99869.91;4924416;29;19933;-83
2024/03/16 00:27:52;;;;;;;;;;;11.50;99.90;;;11.64;77.78;99873.28;4940991;29;19926;-83
2024/03/16 00:30:20;;;;;;;;;;;11.50;99.90;;;11.69;78.07;99868.84;4924816;29;20300;-83
2024/03/16 00:32:48;;;;;;;;;;;11.50;99.90;;;11.74;77.86;99876.16;4941492;29;19927;-82
2024/03/16 00:35:15;;;;;;;;;;;11.50;99.90;;;11.72;77.76;99871.06;4941485;29;19926;-82
2024/03/16 00:37:43;;;;;;;;;;;11.50;99.90;;;11.63;77.79;99866.31;4940731;29;19926;-83
2024/03/16 00:40:10;;;;;;;;;;;11.50;99.90;;;11.62;77.83;99868.16;4940527;29;19981;-83
2024/03/16 00:42:38;;;;;;;;;;;11.50;99.90;;;11.53;77.90;99869.56;4924816;29;19927;-83
2024/03/16 00:45:06;;;;;;;;;;;11.40;99.90;;;11.60;78.34;99867.56;4939685;28;19978;-83
2024/03/16 00:47:34;;;;;;;;;;;11.50;99.90;;;11.67;78.13;99876.28;4939970;29;19930;-84
2024/03/16 00:50:01;;;;;;;;;;;11.50;99.90;;;11.71;77.72;99871.28;4924620;29;19973;-82
2024/03/16 00:52:28;;;;;;;;;;;11.50;99.90;;;11.68;77.78;99880.59;4924501;29;19926;-82
2024/03/16 00:54:56;;;;;;;;;;;11.50;99.90;;;11.64;77.60;99867.94;4940976;29;19927;-82
2024/03/16 00:57:24;;;;;;;;;;;11.50;99.90;;;11.64;77.60;99875.94;4940265;29;19957;-82
2024/03/16 00:59:51;;;;;;;;;;;11.50;99.90;;;11.69;77.92;99874.19;4924546;29;20410;-82
2024/03/16 01:02:18;;;;;;;;;;;11.50;99.90;;;11.73;77.70;99875.34;4940521;29;19950;-83
2024/03/16 01:04:46;;;;;;;;;;;11.50;99.90;;;11.70;77.44;99873.13;4940996;29;19953;-83
2024/03/16 01:07:14;;;;;;;;;;;11.50;99.90;;;11.59;77.44;99881.97;4924219;29;20462;-83
2024/03/16 01:09:42;;;;;;;;;;;11.50;99.90;;;11.53;77.49;99878.38;4940306;29;20419;-83
2024/03/16 01:12:09;;;;;;;;;;;11.50;99.90;;;11.56;77.62;99877.09;4940084;29;19990;-82
2024/03/16 01:14:36;;;;;;;;;;;11.50;99.90;;;11.59;77.86;99876.63;4940467;29;20009;-82
2024/03/16 01:17:04;;;;;;;;;;;11.50;99.90;;;11.53;77.56;99881.06;4940292;29;19931;-82
2024/03/16 01:19:31;;;;;;;;;;;11.50;99.90;;;11.58;78.13;99889.19;4940435;29;19927;-82
2024/03/16 01:21:58;;;;;;;;;;;11.50;99.90;;;11.62;78.03;99881.53;4924505;29;19989;-83
2024/03/16 01:24:25;;;;;;;;;;;11.50;99.90;;;11.62;77.85;99881.53;4924467;29;19927;-83
2024/03/16 01:26:53;;;;;;;;;;;11.50;99.90;;;11.65;77.92;99881.03;4940498;29;19951;-83
2024/03/16 01:29:20;;;;;;;;;;;11.50;99.90;;;11.61;77.44;99887.88;4940183;29;20021;-83
2024/03/16 01:31:47;;;;;;;;;;;11.50;99.90;;;11.66;77.71;99882.66;4940261;29;19926;-83
2024/03/16 01:34:15;;;;;;;;;;;11.50;99.90;;;11.67;77.64;99884.31;4940331;29;20502;-82
2024/03/16 01:36:42;;;;;;;;;;;11.60;99.90;;;11.74;77.58;99886.84;4924386;29;19926;-83
2024/03/16 01:39:12;;;;;;;;;;;11.60;99.90;;;11.77;77.35;99879.19;4940308;29;19930;-82
2024/03/16 01:41:40;;;;;;;;;;;11.60;99.90;;;11.67;77.28;99884.31;4924270;29;20040;-83
2024/03/16 01:44:10;;;;;;;;;;;11.60;99.90;;;11.73;77.62;99894.06;4924496;29;19926;-82
2024/03/16 01:46:39;;;;;;;;;;;11.60;99.90;;;11.68;76.74;99887.78;4940471;29;20392;-83
2024/03/16 01:49:07;;;;;;;;;;;11.60;99.90;;;11.65;77.13;99885.56;4940420;29;19927;-83
2024/03/16 01:51:35;;;;;;;;;;;11.50;99.90;;;11.63;77.69;99890.34;4940545;29;19938;-83
2024/03/16 01:54:03;;;;;;;;;;;11.50;99.90;;;11.66;77.52;99889.88;4923620;29;19949;-83
2024/03/16 01:56:30;;;;;;;;;;;11.50;99.90;;;11.63;77.46;99893.81;4940256;29;19934;-83
2024/03/16 01:58:57;;;;;;;;;;;11.50;99.90;;;11.68;77.62;99893.94;4927503;29;19926;-82
2024/03/16 02:01:25;;;;;;;;;;;11.50;99.90;;;11.73;77.62;99904.75;4943823;29;20407;-82
2024/03/16 02:03:54;;;;;;;;;;;11.60;99.90;;;11.73;77.46;99895.91;4944001;29;19981;-83
2024/03/16 02:06:22;;;;;;;;;;;11.60;99.90;;;11.75;77.57;99891.94;4928240;29;19927;-82
2024/03/16 02:08:49;;;;;;;;;;;11.60;99.90;;;11.71;76.98;99893.50;4942999;29;19927;-83
2024/03/16 02:11:16;;;;;;;;;;;11.60;99.90;;;11.71;77.24;99892.66;4943632;29;20392;-83
2024/03/16 02:13:44;;;;;;;;;;;11.50;99.90;;;11.71;77.39;99896.16;4943049;29;19927;-83
2024/03/16 02:16:11;;;;;;;;;;;11.60;99.90;;;11.66;77.01;99895.19;4927226;29;19926;-83
2024/03/16 02:18:38;;;;;;;;;;;11.50;99.90;;;11.67;77.19;99891.50;4943167;29;19970;-83
2024/03/16 02:21:09;;;;;;;;;;;11.50;99.90;;;11.70;77.06;99891.03;4942991;29;20326;-83
2024/03/16 02:23:36;;;;;;;;;;;11.50;99.90;;;11.74;77.22;99889.53;4942972;29;19926;-83
2024/03/16 02:26:05;;;;;;;;;;;11.50;99.90;;;11.76;77.24;99893.59;4943119;29;20388;-83
2024/03/16 02:28:32;;;;;;;;;;;11.50;99.90;;;11.77;76.98;99897.88;4927636;29;20025;-83
2024/03/16 02:30:59;;;;;;;;;;;11.50;99.90;;;11.67;76.86;99896.84;4943133;29;20005;-83
2024/03/16 02:33:28;;;;;;;;;;;11.50;99.90;;;11.58;76.98;99901.72;4927043;29;19935;-82
2024/03/16 02:35:55;;;;;;;;;;;11.50;99.90;;;11.55;76.92;99913.66;4926879;29;19930;-83
2024/03/16 02:38:22;;;;;;;;;;;11.40;99.90;;;11.62;77.15;99913.56;4943255;29;19990;-83
2024/03/16 02:40:50;;;;;;;;;;;11.50;99.90;;;11.56;77.32;99915.28;4942687;29;19934;-84
2024/03/16 02:43:17;;;;;;;;;;;11.50;99.90;;;11.52;77.57;99911.47;4942731;29;19930;-83
2024/03/16 02:45:44;;;;;;;;;;;11.50;99.90;;;11.55;77.84;99910.19;4926934;29;20315;-82
2024/03/16 02:48:11;;;;;;;;;;;11.40;99.90;;;11.54;77.24;99911.25;4926912;29;19950;-83
2024/03/16 02:50:39;;;;;;;;;;;11.50;99.90;;;11.54;77.22;99911.25;4942747;29;19974;-83
2024/03/16 02:53:06;;;;;;;;;;;11.40;99.90;;;11.45;77.54;99921.44;4927513;29;19926;-82
2024/03/16 02:55:33;;;;;;;;;;;11.30;99.90;;;11.46;77.68;99911.56;4942901;29;19927;-83
2024/03/16 02:58:00;;;;;;;;;;;11.40;99.90;;;11.51;77.63;99917.03;4926202;29;20033;-84
2024/03/16 03:00:28;;;;;;;;;;;11.40;99.90;;;11.56;77.83;99922.50;4942316;29;19933;-84
2024/03/16 03:02:55;;;;;;;;;;;11.40;99.90;;;11.58;77.57;99918.56;4926274;29;20025;-84
2024/03/16 03:05:23;;;;;;;;;;;11.50;99.90;;;11.59;77.33;99919.38;4942539;29;19926;-83
2024/03/16 03:07:50;;;;;;;;;;;11.50;99.90;;;11.61;77.28;99917.25;4942624;29;19985;-82
2024/03/16 03:10:18;;;;;;;;;;;11.50;99.90;;;11.56;78.05;99933.16;4926275;29;19933;-83
2024/03/16 03:12:45;;;;;;;;;;;11.50;99.90;;;11.61;78.04;99933.28;4926653;29;20315;-83
2024/03/16 03:15:13;;;;;;;;;;;11.50;99.90;;;11.59;78.03;99935.38;4927355;29;19927;-83
2024/03/16 03:17:40;;;;;;;;;;;11.50;99.90;;;11.61;78.21;99938.63;4926789;29;19930;-83
2024/03/16 03:20:08;;;;;;;;;;;11.50;99.90;;;11.60;78.16;99939.69;4926950;29;19933;-83
2024/03/16 03:22:36;;;;;;;;;;;11.50;99.90;;;11.62;78.36;99942.94;4942194;29;19930;-83
2024/03/16 03:25:04;;;;;;;;;;;11.50;99.90;;;11.62;78.32;99939.47;4942110;29;19926;-83
2024/03/16 03:27:31;;;;;;;;;;;11.50;99.90;;;11.64;78.30;99943.53;4942618;29;19930;-83
2024/03/16 03:29:58;;;;;;;;;;;11.50;99.90;;;11.65;78.50;99939.81;4926797;29;20021;-82
2024/03/16 03:32:26;;;;;;;;;;;11.50;99.90;;;11.62;78.10;99950.16;4942212;29;19990;-83
2024/03/16 03:34:53;;;;;;;;;;;11.50;99.90;;;11.55;78.60;99939.56;4942486;29;19926;-84
2024/03/16 03:37:20;;;;;;;;;;;11.40;99.90;;;11.51;79.11;99949.06;4926248;29;19970;-84
2024/03/16 03:39:51;;;;;;;;;;;11.40;99.90;;;11.48;79.06;99939.69;4941016;29;19964;-84
2024/03/16 03:42:24;;;;;;;;;;;11.40;99.90;;;11.45;79.58;99958.00;4926234;29;19977;-84
2024/03/16 03:45:00;;;;;;;;;;;11.40;99.90;;;11.49;79.47;99954.66;4926600;29;20001;-84
2024/03/16 03:47:49;;;;;;;;;;;11.40;99.90;;;11.50;79.97;99950.94;4927240;29;20368;-84
2024/03/16 03:50:26;;;;;;;;;;;11.40;99.90;;;11.50;79.93;99953.59;4928785;29;19930;-83
2024/03/16 03:52:55;;;;;;;;;;;11.40;99.90;;;11.44;79.78;99953.72;4927088;29;20378;-84
2024/03/16 03:55:22;;;;;;;;;;;11.40;99.90;;;11.46;80.04;99959.63;4925891;29;19927;-84
2024/03/16 03:57:49;;;;;;;;;;;11.40;99.90;;;11.42;80.31;99955.78;4925782;29;19966;-84
2024/03/16 04:00:17;;;;;;;;;;;11.40;99.90;;;11.48;80.41;99963.72;4941384;29;19954;-84
2024/03/16 04:02:46;;;;;;;;;;;11.30;99.90;;;11.50;80.28;99968.81;4941782;29;19933;-84
2024/03/16 04:05:13;;;;;;;;;;;11.40;99.90;;;11.50;80.70;99974.16;4941426;29;20013;-84
2024/03/16 04:07:41;;;;;;;;;;;11.40;99.90;;;11.56;80.38;99970.56;4941655;29;19930;-83
2024/03/16 04:10:09;;;;;;;;;;;11.40;99.90;;;11.58;80.46;99971.16;4942151;29;20328;-83
2024/03/16 04:12:36;;;;;;;;;;;11.40;99.90;;;11.59;80.55;99973.59;4941320;29;19954;-83
2024/03/16 04:15:04;;;;;;;;;;;11.40;99.90;;;11.54;80.62;99976.13;4941577;29;19977;-83
2024/03/16 04:17:31;;;;;;;;;;;11.40;99.90;;;11.52;80.93;99966.75;4941263;29;20390;-82
2024/03/16 04:19:58;;;;;;;;;;;11.40;99.90;;;11.46;81.34;99981.00;4925166;28;19931;-84
2024/03/16 04:22:25;;;;;;;;;;;11.30;99.90;;;11.38;81.55;99979.47;4925050;29;20021;-84
2024/03/16 04:24:53;;;;;;;;;;;11.30;99.90;;;11.34;81.99;99989.78;4925797;29;19931;-84
2024/03/16 04:27:20;;;;;;;;;;;11.30;99.90;;;11.29;82.24;99987.00;4941250;29;19926;-84
2024/03/16 04:29:48;;;;;;;;;;;11.30;99.90;;;11.35;82.34;99990.59;4925126;29;19990;-82
2024/03/16 04:32:15;;;;;;;;;;;11.20;99.90;;;11.33;82.36;99990.03;4941404;29;19927;-84
2024/03/16 04:34:42;;;;;;;;;;;11.20;99.90;;;11.27;82.71;99991.75;4926408;29;19933;-84
2024/03/16 04:37:10;;;;;;;;;;;11.20;99.90;;;11.33;82.72;99996.19;4942619;29;19930;-84
2024/03/16 04:39:43;;;;;;;;;;;11.30;99.90;;;11.32;82.57;100002.56;4926631;29;20311;-83
2024/03/16 04:42:10;;;;;;;;;;;11.30;99.90;;;11.29;82.87;100005.69;4943119;29;19927;-84
2024/03/16 04:44:38;;;;;;;;;;;11.20;99.90;;;11.35;83.03;100010.09;4942205;29;19964;-84
2024/03/16 04:47:05;;;;;;;;;;;11.30;99.90;;;11.42;82.54;100006.53;4941938;29;19927;-84
2024/03/16 04:49:32;;;;;;;;;;;11.30;99.90;;;11.42;82.39;100009.19;4941992;29;20395;-84
2024/03/16 04:51:59;;;;;;;;;;;11.30;99.90;;;11.42;82.59;100003.84;4926346;29;20312;-84
2024/03/16 04:54:28;;;;;;;;;;;11.30;99.90;;;11.33;82.72;100006.88;4941883;29;20581;-83
2024/03/16 04:56:55;;;;;;;;;;;11.20;99.90;;;11.31;83.21;100006.25;4942738;29;19981;-84
2024/03/16 04:59:22;;;;;;;;;;;11.30;99.90;;;11.34;83.23;100008.47;4942684;29;19930;-83
2024/03/16 05:01:49;;;;;;;;;;;11.20;99.90;;;11.34;83.22;100008.47;4926667;29;19926;-83
2024/03/16 05:04:20;;;;;;;;;;;11.30;99.90;;;11.37;83.28;100017.06;4941923;29;19969;-83
2024/03/16 05:06:47;;;;;;;;;;;11.20;99.90;;;11.40;82.95;100006.75;4926511;29;20025;-83
2024/03/16 05:09:15;;;;;;;;;;;11.20;99.90;;;11.39;82.65;100007.81;4926149;29;19981;-84
2024/03/16 05:11:42;;;;;;;;;;;11.20;99.90;;;11.35;83.44;100015.44;4926519;29;20400;-84
2024/03/16 05:14:11;;;;;;;;;;;11.20;99.90;;;11.34;83.11;100013.81;4926172;29;19926;-84
2024/03/16 05:16:39;;;;;;;;;;;11.30;99.90;;;11.34;83.57;100018.34;4941642;29;19950;-83
2024/03/16 05:19:07;;;;;;;;;;;11.20;99.90;;;11.40;83.19;100027.31;4925858;29;19945;-83
2024/03/16 05:21:34;;;;;;;;;;;11.30;99.90;;;11.42;83.27;100031.38;4941875;29;19961;-84
2024/03/16 05:24:01;;;;;;;;;;;11.30;99.90;;;11.30;83.38;100035.84;4925987;29;19926;-84
2024/03/16 05:26:30;;;;;;;;;;;11.20;99.90;;;11.29;83.65;100036.91;4925476;29;19978;-83
2024/03/16 05:28:58;;;;;;;;;;;11.20;99.90;;;11.34;83.55;100042.38;4942314;29;19937;-83
2024/03/16 05:31:25;;;;;;;;;;;11.30;99.90;;;11.40;83.53;100060.16;4942435;28;19989;-84
2024/03/16 05:33:53;;;;;;;;;;;11.30;99.90;;;11.44;83.17;100060.53;4944959;29;20388;-84
2024/03/16 05:36:20;;;;;;;;;;;11.30;99.90;;;11.45;83.11;100062.16;4929238;29;20285;-84
2024/03/16 05:38:47;;;;;;;;;;;11.30;99.90;;;11.45;83.12;100062.97;4929302;29;19982;-83
2024/03/16 05:41:15;;;;;;;;;;;11.30;99.90;;;11.45;83.23;100078.97;4946255;29;20443;-84
2024/03/16 05:43:44;;;;;;;;;;;11.30;99.90;;;11.36;83.76;100091.00;4945377;29;19982;-84
2024/03/16 05:46:11;;;;;;;;;;;11.20;99.90;;;11.37;83.86;100097.16;4930016;29;19964;-84
2024/03/16 05:48:39;;;;;;;;;;;11.30;99.90;;;11.29;83.46;100100.97;4945791;29;19950;-84
2024/03/16 05:51:06;;;;;;;;;;;11.20;99.90;;;11.13;83.24;100110.41;4945307;29;19927;-83
2024/03/16 05:53:33;;;;;;;;;;;11.10;99.90;;;11.06;83.77;100112.34;4928621;29;19926;-82
2024/03/16 05:56:00;;;;;;;;;;;11.10;99.90;;;11.15;83.74;100111.00;4944126;29;19930;-82
2024/03/16 05:58:31;;;;;;;;;;;11.10;99.90;;;11.13;83.16;100125.63;4928198;29;19930;-82
2024/03/16 06:01:00;;;;;;;;;;;11.10;99.90;;;11.07;83.21;100130.78;4928452;29;19926;-82
2024/03/16 06:03:28;;;;;;;;;;;11.10;99.90;;;11.07;82.91;100135.31;4928644;29;20422;-82
2024/03/16 06:05:56;;;;;;;;;;;11.00;99.90;;;11.06;82.88;100141.69;4928097;29;19927;-82
2024/03/16 06:08:23;;;;;;;;;;;11.00;99.90;;;10.91;82.76;100143.91;4943943;29;19930;-81
2024/03/16 06:10:50;;;;;;;;;;;10.90;99.90;;;11.00;82.68;100155.94;4944220;29;19927;-82
2024/03/16 06:13:18;;;;;;;;;;;10.90;99.90;;;11.09;82.43;100168.75;4928701;29;19937;-82
2024/03/16 06:15:47;;;;;;;;;;;11.00;99.90;;;11.18;82.09;100182.63;4927584;29;20392;-83
2024/03/16 06:18:15;;;;;;;;;;;11.00;99.90;;;11.03;81.20;100190.19;4945363;29;19989;-83
2024/03/16 06:20:42;;;;;;;;;;;11.00;99.90;;;10.97;81.46;100193.72;4928977;29;19953;-83
2024/03/16 06:23:10;;;;;;;;;;;10.90;99.90;;;10.98;81.44;100203.34;4944162;29;19926;-82
2024/03/16 06:25:46;;;;;;;;;;;10.90;99.90;;;10.93;81.39;100200.53;4944018;29;20016;-82
2024/03/16 06:28:16;;;;;;;;;;;10.80;99.90;;;10.92;81.33;100209.56;4944813;29;20304;-84
2024/03/16 06:30:49;;;;;;;;;;;10.80;99.90;;;10.93;81.18;100225.38;4928477;29;20020;-86
2024/03/16 06:33:27;;;;;;;;;;;10.80;99.90;;;10.91;80.74;100222.09;4943699;29;19926;-85
2024/03/16 06:35:56;;;;;;;;;;;10.80;99.90;;;10.67;80.69;100228.25;4945402;29;20017;-85
2024/03/16 06:38:24;;;;;;;;;;;10.60;99.90;;;10.72;80.95;100229.22;4942491;29;19938;-85
2024/03/16 06:40:53;;;;;;;;;;;10.60;99.90;;;10.82;80.95;100240.22;4941173;29;19927;-87
2024/03/16 06:43:20;;;;;;;;;;;10.70;99.90;;;10.80;80.40;100244.97;4926017;28;20340;-85
2024/03/16 06:45:48;;;;;;;;;;;10.70;99.90;;;10.79;80.83;100246.00;4940889;29;19985;-86
2024/03/16 06:48:16;;;;;;;;;;;10.70;99.90;;;10.77;80.49;100249.91;4924367;29;20455;-87
2024/03/16 06:50:45;;;;;;;;;;;10.70;99.90;;;10.82;80.87;100266.09;4940857;29;19930;-87
2024/03/16 06:53:13;;;;;;;;;;;10.70;99.90;;;10.85;80.40;100275.53;4940397;29;19931;-87
2024/03/16 06:55:40;;;;;;;;;;;10.70;99.90;;;10.87;80.30;100274.25;4940649;29;20414;-85
2024/03/16 06:58:09;;;;;;;;;;;10.70;99.90;;;10.78;80.13;100279.06;4925285;29;19932;-87
2024/03/16 07:00:37;;;;;;;;;;;10.70;99.90;;;10.74;80.01;100291.19;4940885;29;19926;-86
2024/03/16 07:03:05;;;;;;;;;;;10.60;99.90;;;10.77;80.13;100304.09;4940995;29;20451;-86
2024/03/16 07:05:34;;;;;;;;;;;10.60;99.90;;;10.70;79.52;100305.19;4941214;29;20414;-86
2024/03/16 07:08:01;;;;;;;;;;;10.60;99.90;;;10.74;79.60;100319.72;4941470;29;19927;-85
2024/03/16 07:10:29;;;;;;;;;;;10.60;99.90;;;10.79;79.48;100320.72;4942174;29;19931;-86
2024/03/16 07:12:56;;;;;;;;;;;10.70;99.90;;;10.83;79.40;100342.41;4925792;29;20391;-82
2024/03/16 07:15:23;;;;;;;;;;;10.70;99.90;;;10.76;78.56;100336.31;4943685;29;20434;-84
2024/03/16 07:17:51;;;;;;;;;;;10.70;99.90;;;10.67;78.35;100348.28;4926672;29;19950;-84
2024/03/16 07:20:18;;;;;;;;;;;10.60;99.90;;;10.69;78.69;100355.03;4943801;29;19933;-84
2024/03/16 07:22:45;;;;;;;;;;;10.60;99.90;;;10.74;78.68;100355.22;4944531;29;19933;-84
2024/03/16 07:25:14;;;;;;;;;;;10.60;99.90;;;10.76;79.04;100374.47;4950817;28;20478;-84
2024/03/16 07:27:42;;;;;;;;;;;10.60;99.90;;;10.75;78.62;100378.19;4947294;28;20378;-84
2024/03/16 07:30:10;;;;;;;;;;;10.60;99.90;;;10.71;78.03;100382.31;4951792;29;20435;-83
2024/03/16 07:32:37;;;;;;;;;;;10.60;99.90;;;10.73;78.10;100396.22;4944095;29;19926;-84
2024/03/16 07:35:07;;;;;;;;;;;10.60;99.90;;;10.73;78.03;100390.91;4943677;29;19930;-83
2024/03/16 07:37:38;;;;;;;;;;;10.30;99.90;;;10.71;77.55;100395.66;4928284;29;19951;-83
2024/03/16 07:40:13;;;;;;;;;;;10.60;99.90;;;10.67;77.35;100412.28;4944226;29;20028;-84
2024/03/16 07:42:45;;;;;;;;;;;10.50;99.90;;;10.59;77.34;100410.69;4945754;28;19930;-84
2024/03/16 07:45:14;;;;;;;;;;;10.50;99.90;;;10.65;78.07;100419.69;4944765;29;20387;-84
2024/03/16 07:47:42;;;;;;;;;;;10.50;99.90;;;10.64;77.29;100424.22;4944386;29;19927;-83
2024/03/16 07:50:09;;;;;;;;;;;10.50;99.90;;;10.69;77.62;100429.72;4943674;29;19966;-84
2024/03/16 07:52:37;;;;;;;;;;;10.50;99.90;;;10.71;77.79;100424.97;4942079;29;19926;-83
2024/03/16 07:55:06;;;;;;;;;;;10.60;99.90;;;10.79;78.04;100432.75;4928071;29;19930;-84
2024/03/16 07:57:33;;;;;;;;;;;10.60;99.90;;;10.85;78.07;100431.06;4927076;29;20463;-84
2024/03/16 08:00:01;;;;;;;;;;;10.70;99.90;;;10.85;77.66;100439.06;4943363;29;19969;-84
2024/03/16 08:02:28;;;;;;;;;;;10.70;99.90;;;10.78;76.96;100444.47;4943408;29;20004;-83
2024/03/16 08:04:55;;;;;;;;;;;10.60;99.90;;;10.80;77.44;100446.91;4944778;29;20021;-83
2024/03/16 08:07:23;;;;;;;;;;;10.60;99.90;;;10.79;77.06;100454.09;4944279;29;19938;-84
2024/03/16 08:09:52;;;;;;;;;;;10.70;99.90;;;10.82;77.70;100458.97;4943952;29;19933;-83
2024/03/16 08:12:20;;;;;;;;;;;10.60;99.90;;;10.86;77.10;100474.56;4928000;29;20293;-83
2024/03/16 08:14:47;;;;;;;;;;;10.60;99.90;;;10.88;77.49;100461.81;4944883;29;19934;-84
2024/03/16 08:17:14;;;;;;;;;;;10.70;99.90;;;10.92;77.94;100474.53;4945184;29;19936;-83
2024/03/16 08:19:41;;;;;;;;;;;10.70;99.90;;;10.82;76.86;100476.84;4944428;28;19927;-84
2024/03/16 08:22:10;;;;;;;;;;;10.70;99.90;;;10.83;77.16;100487.31;4928033;29;19932;-83
2024/03/16 08:24:37;;;;;;;;;;;10.70;99.90;;;10.87;77.19;100492.22;4942725;29;19926;-82
2024/03/16 08:27:05;;;;;;;;;;;10.70;99.90;;;10.89;77.17;100488.31;4941934;29;20017;-85
2024/03/16 08:29:32;;;;;;;;;;;10.70;99.90;;;10.89;77.17;100491.00;4941571;29;19926;-81
2024/03/16 08:32:00;;;;;;;;;;;10.70;99.90;;;10.83;76.72;100498.00;4942658;28;19966;-81
2024/03/16 08:34:27;;;;;;;;;;;10.70;99.90;;;10.86;76.82;100507.41;4940322;29;20409;-83
2024/03/16 08:36:55;;;;;;;;;;;10.60;99.90;;;10.85;76.50;100510.28;4941685;29;19958;-83
2024/03/16 08:39:23;;;;;;;;;;;10.60;99.90;;;10.72;75.29;100519.97;4942453;29;19927;-82
2024/03/16 08:41:51;;;;;;;;;;;10.50;99.90;;;10.69;75.40;100527.59;4942117;29;19931;-82
2024/03/16 08:44:18;;;;;;;;;;;10.50;99.90;;;10.57;75.04;100528.22;4941801;29;19974;-82
2024/03/16 08:46:46;;;;;;;;;;;10.40;99.90;;;10.63;75.61;100536.41;4941863;29;19926;-82
2024/03/16 08:49:13;;;;;;;;;;;10.40;99.90;;;10.64;75.75;100541.56;4942131;29;19954;-82
2024/03/16 08:51:40;;;;;;;;;;;10.40;99.90;;;10.64;75.72;100554.06;4941815;29;20021;-82
2024/03/16 08:54:08;;;;;;;;;;;10.40;99.90;;;10.60;75.57;100556.34;4942145;29;19926;-82
2024/03/16 08:56:35;;;;;;;;;;;10.40;99.90;;;10.57;74.88;100562.09;4941712;29;20407;-82
2024/03/16 08:59:03;;;;;;;;;;;10.30;99.90;;;10.49;74.16;100570.28;4941775;29;19970;-83
2024/03/16 09:01:31;;;;;;;;;;;10.30;99.90;;;10.54;75.02;100573.16;4942243;29;20321;-82
2024/03/16 09:03:59;;;;;;;;;;;10.30;99.90;;;10.60;74.27;100577.69;4942686;29;19926;-82
2024/03/16 09:06:26;;;;;;;;;;;10.40;99.90;;;10.65;75.30;100579.72;4942146;28;20374;-82
2024/03/16 09:08:58;;;;;;;;;;;10.40;99.90;;;10.69;74.98;100592.44;4945210;29;19938;-83
2024/03/16 09:11:25;;;;;;;;;;;10.40;99.90;;;10.71;74.32;100600.22;4946846;29;19930;-83
2024/03/16 09:13:52;;;;;;;;;;;10.50;99.90;;;10.57;73.22;100596.75;4946431;29;20359;-82
2024/03/16 09:16:20;;;;;;;;;;;10.40;99.90;;;10.58;73.65;100609.06;4946699;29;19961;-83
2024/03/16 09:18:47;;;;;;;;;;;10.40;99.90;;;10.63;74.11;100608.44;4946287;29;19977;-82
2024/03/16 09:21:15;;;;;;;;;;;10.40;99.90;;;10.74;75.07;100613.97;4946088;29;20017;-82
2024/03/16 09:23:42;;;;;;;;;;;10.60;99.90;;;10.78;74.18;100611.69;4945807;29;19931;-82
2024/03/16 09:26:09;;;;;;;;;;;10.60;99.90;;;10.82;73.74;100615.56;4930991;29;19927;-82
2024/03/16 09:28:37;;;;;;;;;;;10.60;99.90;;;10.86;74.32;100622.13;4946417;29;19927;-82
2024/03/16 09:31:08;;;;;;;;;;;10.60;99.90;;;10.91;74.10;100618.84;4946265;29;19962;-82
2024/03/16 09:33:36;;;;;;;;;;;10.70;99.90;;;10.94;74.32;100627.25;4946823;29;19930;-83
2024/03/16 09:36:06;;;;;;;;;;;10.70;99.90;;;11.01;74.86;100627.22;4945821;29;20307;-82
2024/03/16 09:38:34;;;;;;;;;;;10.80;99.90;;;11.05;74.63;100634.59;4946432;29;19926;-82
2024/03/16 09:41:02;;;;;;;;;;;10.90;99.90;;;11.08;73.96;100644.06;4945126;29;19930;-82
2024/03/16 09:43:33;;;;;;;;;;;10.90;99.90;;;11.09;74.61;100648.34;4944773;29;20013;-83
2024/03/16 09:46:05;;;;;;;;;;;10.90;99.90;;;11.05;73.97;100649.81;4945578;29;19943;-82
2024/03/16 09:48:33;;;;;;;;;;;10.90;99.90;;;10.98;72.83;100667.66;4944566;29;19976;-82
2024/03/16 09:51:00;;;;;;;;;;;10.80;99.90;;;10.73;71.19;100673.66;4944384;29;19934;-82
2024/03/16 09:53:31;;;;;;;;;;;10.50;99.90;;;10.72;72.40;100682.69;4944466;29;19927;-82
2024/03/16 09:56:00;;;;;;;;;;;10.50;99.90;;;10.78;73.62;100678.38;4944231;29;20303;-82
2024/03/16 09:58:28;;;;;;;;;;;10.50;99.90;;;10.80;73.90;100674.47;4928965;29;19926;-83
2024/03/16 10:00:56;;;;;;;;;;;10.60;99.90;;;10.83;73.24;100678.56;4945744;29;19934;-83
2024/03/16 10:03:24;;;;;;;;;;;10.60;99.90;;;10.79;72.91;100680.03;4946057;29;19926;-83
2024/03/16 10:05:52;;;;;;;;;;;10.50;99.90;;;10.80;73.13;100693.16;4946588;29;19927;-83
2024/03/16 10:08:22;;;;;;;;;;;10.60;99.90;;;10.72;71.90;100687.22;4946473;28;20417;-83
2024/03/16 10:10:50;;;;;;;;;;;10.50;99.90;;;10.76;72.20;100697.25;4946922;29;19982;-83
2024/03/16 10:13:17;;;;;;;;;;;10.50;99.90;;;10.72;71.35;100695.22;4945757;29;19926;-83
2024/03/16 10:15:45;;;;;;;;;;;10.50;99.90;;;10.76;71.94;100710.59;4929408;29;19934;-81
2024/03/16 10:18:14;;;;;;;;;;;10.50;99.90;;;10.78;71.69;100708.56;4944156;29;19934;-82
2024/03/16 10:20:41;;;;;;;;;;;10.50;99.90;;;10.81;71.61;100710.81;4944191;29;20434;-81
2024/03/16 10:23:15;;;;;;;;;;;10.60;99.90;;;10.82;71.67;100717.78;4944232;29;19926;-83
2024/03/16 10:25:46;;;;;;;;;;;10.60;99.90;;;10.87;71.11;100719.00;4944987;29;19926;-82
2024/03/16 10:28:15;;;;;;;;;;;10.70;99.90;;;10.92;71.37;100730.69;4943759;29;19933;-82
2024/03/16 10:30:43;;;;;;;;;;;10.70;99.90;;;10.89;70.16;100731.13;4943011;29;19926;-83
2024/03/16 10:33:10;;;;;;;;;;;10.70;99.90;;;10.90;70.57;100735.44;4974207;28;19933;-83
2024/03/16 10:35:39;;;;;;;;;;;10.70;99.90;;;10.86;69.90;100747.53;4943323;28;19934;-82
2024/03/16 10:38:08;;;;;;;;;;;10.70;99.90;;;10.83;69.81;100756.78;4943248;29;19974;-82
2024/03/16 10:40:37;;;;;;;;;;;10.60;99.90;;;10.75;67.69;100756.16;4942711;29;20486;-83
2024/03/16 10:43:05;;;;;;;;;;;10.50;99.90;;;10.56;67.16;100758.63;4928223;29;19977;-83
2024/03/16 10:45:33;;;;;;;;;;;10.30;99.90;;;10.58;68.42;100766.41;4942915;29;19927;-83
2024/03/16 10:48:02;;;;;;;;;;;10.30;99.90;;;10.67;69.32;100769.69;4943212;29;19930;-82
2024/03/16 10:50:30;;;;;;;;;;;10.40;99.90;;;10.65;69.50;100780.59;4943769;29;19926;-83
2024/03/16 10:52:58;;;;;;;;;;;10.40;99.90;;;10.69;69.46;100783.69;4944213;29;19961;-83
2024/03/16 10:55:26;;;;;;;;;;;10.40;99.90;;;10.70;69.30;100785.31;4943298;29;19930;-83
2024/03/16 10:57:54;;;;;;;;;;;10.40;99.90;;;10.70;68.37;100793.31;4927922;29;19977;-83
2024/03/16 11:00:34;;;;;;;;;;;10.40;99.90;;;10.65;66.61;100798.44;4942770;29;19927;-83
2024/03/16 11:03:07;;;;;;;;;;;10.40;99.90;;;10.60;66.71;100801.72;4944586;29;19961;-82
2024/03/16 11:05:37;;;;;;;;;;;10.40;99.90;;;10.50;66.17;100802.09;4944078;29;19993;-83
2024/03/16 11:08:23;;;;;;;;;;;10.30;99.90;;;10.50;67.16;100810.09;4927907;29;19933;-83
2024/03/16 11:10:52;;;;;;;;;;;10.30;99.90;;;10.56;67.44;100814.63;4926331;29;20303;-83
2024/03/16 11:13:23;;;;;;;;;;;10.40;99.90;;;10.60;67.70;100804.38;4926964;29;19931;-83
2024/03/16 11:15:51;;;;;;;;;;;10.40;99.90;;;10.60;66.60;100808.91;4943262;29;19926;-83